Time;durP1;ratioP1;P1;durP2;ratioP2;P2;SDS_P1;SDS_P2;PMS_P1;PMS_P2;Temp;Humidity;BMP_temperature;BMP_pressure;BME280_temperature;BME280_humidity;BME280_pressure;Samples;Min_cycle;Max_cycle;Signal;HPM_P1;HPM_P2
2019/11/09 00:01:03;;;;;;;9.9;9;;;;;;;6.54;77.63574;928.1611;;;;
2019/11/09 00:03:33;;;;;;;9.8;8.9;;;;;;;6.64;76.96289;928.1535;;;;
2019/11/09 00:05:55;;;;;;;10.3;9.3;;;;;;;6.46;77.82422;928.253;;;;
2019/11/09 00:08:19;;;;;;;10.5;9.5;;;;;;;6.43;78.37402;928.2654;;;;
2019/11/09 00:10:51;;;;;;;10.4;9.3;;;;;;;6.32;78.65723;928.2531;;;;
2019/11/09 00:13:19;;;;;;;10.7;9.7;;;;;;;6.37;78.72363;928.3231;;;;
2019/11/09 00:15:47;;;;;;;10.3;9.4;;;;;;;6.41;77.99512;928.2723;;;;
2019/11/09 00:18:17;;;;;;;10;9.1;;;;;;;6.6;77.3623;928.3419;;;;
2019/11/09 00:20:44;;;;;;;10.3;9.4;;;;;;;6.7;77.16504;928.3525;;;;
2019/11/09 00:23:23;;;;;;;10.2;9.2;;;;;;;6.82;76.66699;928.3054;;;;
2019/11/09 00:25:48;;;;;;;10.2;9.3;;;;;;;6.81;76.75488;928.2575;;;;
2019/11/09 00:28:19;;;;;;;10;9.1;;;;;;;6.81;76.45117;928.2198;;;;
2019/11/09 00:30:45;;;;;;;10.1;9.1;;;;;;;6.91;76.57031;928.2349;;;;
2019/11/09 00:33:22;;;;;;;11.7;9.7;;;;;;;6.62;77.24121;928.3312;;;;
2019/11/09 00:35:59;;;;;;;10.8;9.8;;;;;;;6.69;77.20898;928.3097;;;;
2019/11/09 00:38:24;;;;;;;11.4;10.2;;;;;;;6.69;77.32227;928.3405;;;;
2019/11/09 00:40:56;;;;;;;10.1;9.1;;;;;;;6.46;77.79004;928.4191;;;;
2019/11/09 00:43:29;;;;;;;10.6;9.6;;;;;;;6.51;77.94531;928.4819;;;;
2019/11/09 00:46:22;;;;;;;10.2;9.3;;;;;;;6.4;78.06348;928.5289;;;;
2019/11/09 00:48:53;;;;;;;9.9;9;;;;;;;6.53;77.47559;928.498;;;;
2019/11/09 00:51:16;;;;;;;9.5;8.6;;;;;;;6.65;77.27246;928.5269;;;;
2019/11/09 00:53:45;;;;;;;9.8;8.9;;;;;;;6.72;77.03418;928.5916;;;;
2019/11/09 00:56:13;;;;;;;9.3;8.5;;;;;;;6.75;76.46094;928.5499;;;;
2019/11/09 00:58:44;;;;;;;10;9.1;;;;;;;6.75;76.39258;928.4928;;;;
2019/11/09 01:01:15;;;;;;;9.7;8.8;;;;;;;6.84;76.12695;928.5381;;;;
2019/11/09 01:04:20;;;;;;;10;9.1;;;;;;;6.85;76.25488;928.6039;;;;
2019/11/09 01:06:12;;;;;;;10;9.1;;;;;;;6.84;76.71582;928.6513;;;;
2019/11/09 01:08:45;;;;;;;9.4;8.6;;;;;;;6.81;75.68066;928.6526;;;;
2019/11/09 01:11:18;;;;;;;8.9;8.2;;;;;;;6.9;75.61816;928.6889;;;;
2019/11/09 01:13:43;;;;;;;8.8;8;;;;;;;6.95;75.4668;928.6244;;;;
2019/11/09 01:16:14;;;;;;;9;8.2;;;;;;;7.04;75.66406;928.7163;;;;
2019/11/09 01:18:47;;;;;;;9.1;8.3;;;;;;;7.03;75.53809;928.6894;;;;
2019/11/09 01:21:16;;;;;;;9.6;8.8;;;;;;;7.05;75.2334;928.79;;;;
2019/11/09 01:26:20;;;;;;;9.6;8.7;;;;;;;6.95;76.07715;928.7819;;;;
2019/11/09 01:28:48;;;;;;;9.5;8.7;;;;;;;6.95;76.29395;928.8459;;;;
2019/11/09 01:31:23;;;;;;;9.3;8.5;;;;;;;6.95;76.07813;928.8539;;;;
2019/11/09 01:33:52;;;;;;;9.4;8.6;;;;;;;6.94;76.58691;928.8831;;;;
2019/11/09 01:36:16;;;;;;;9.3;8.4;;;;;;;6.98;75.91309;928.885;;;;
2019/11/09 01:38:44;;;;;;;9.9;9;;;;;;;6.99;76.41504;928.9207;;;;
2019/11/09 01:41:11;;;;;;;10.1;9.2;;;;;;;6.98;76.27734;928.8984;;;;
2019/11/09 01:43:45;;;;;;;9.3;8.5;;;;;;;6.84;75.93457;928.8554;;;;
2019/11/09 01:46:08;;;;;;;9.3;8.4;;;;;;;6.87;76.73242;928.8621;;;;
2019/11/09 01:49:18;;;;;;;8.8;8;;;;;;;6.92;76.29883;928.8521;;;;
2019/11/09 01:51:45;;;;;;;9.5;8.6;;;;;;;6.88;76.50684;928.9238;;;;
2019/11/09 01:54:17;;;;;;;8.9;8.1;;;;;;;6.84;76.18359;928.8949;;;;
2019/11/09 01:57:06;;;;;;;8.4;7.6;;;;;;;6.89;76.69141;928.7933;;;;
2019/11/09 01:59:13;;;;;;;9;8.2;;;;;;;6.82;77.29004;928.8546;;;;
2019/11/09 02:01:39;;;;;;;9.2;8.2;;;;;;;6.86;77.06055;928.8311;;;;
2019/11/09 02:04:23;;;;;;;9.3;8.5;;;;;;;6.88;77.37891;928.8098;;;;
2019/11/09 02:06:51;;;;;;;9.5;8.7;;;;;;;6.66;77.16992;928.8513;;;;
2019/11/09 02:09:22;;;;;;;9.5;8.6;;;;;;;6.58;77.44922;928.8739;;;;
2019/11/09 02:11:48;;;;;;;9.2;8.3;;;;;;;6.59;77.13477;928.8686;;;;
2019/11/09 02:14:17;;;;;;;9.4;8.4;;;;;;;6.64;77.21191;928.8764;;;;
2019/11/09 02:16:51;;;;;;;9.4;8.5;;;;;;;6.7;77.40332;928.8918;;;;
2019/11/09 02:19:24;;;;;;;10;8.9;;;;;;;6.68;77.30957;928.8601;;;;
2019/11/09 02:21:49;;;;;;;10;9;;;;;;;6.77;77.35938;928.8712;;;;
2019/11/09 02:24:18;;;;;;;9.6;8.7;;;;;;;6.83;77.55371;928.8775;;;;
2019/11/09 02:26:49;;;;;;;9.3;8.4;;;;;;;6.91;76.77441;928.8362;;;;
2019/11/09 02:29:11;;;;;;;8.9;8;;;;;;;6.92;76.52637;928.8489;;;;
2019/11/09 02:31:37;;;;;;;9.4;8.5;;;;;;;6.93;77.32129;928.8498;;;;
2019/11/09 02:34:08;;;;;;;8.9;8.1;;;;;;;6.97;76.3418;928.8485;;;;
2019/11/09 02:36:32;;;;;;;8.8;8;;;;;;;6.96;76.375;928.8578;;;;
2019/11/09 02:38:57;;;;;;;9.4;8.5;;;;;;;6.97;75.98145;928.8683;;;;
2019/11/09 02:41:29;;;;;;;8.6;7.8;;;;;;;6.98;76.44531;928.8122;;;;
2019/11/09 02:44:01;;;;;;;8.6;7.8;;;;;;;6.95;76.69043;928.8381;;;;
2019/11/09 02:46:31;;;;;;;8.9;8.1;;;;;;;6.97;76.76074;928.8492;;;;
2019/11/09 02:48:58;;;;;;;9.5;8.6;;;;;;;6.87;77.62598;928.8042;;;;
2019/11/09 02:51:28;;;;;;;9.6;8.7;;;;;;;6.89;77.18848;928.8098;;;;
2019/11/09 02:53:57;;;;;;;8.8;8;;;;;;;6.82;76.92773;928.8624;;;;
2019/11/09 02:56:27;;;;;;;8.2;7.5;;;;;;;6.7;76.55469;928.865;;;;
2019/11/09 02:58:56;;;;;;;8.4;7.6;;;;;;;6.71;76.71387;928.8928;;;;
2019/11/09 03:01:29;;;;;;;8.5;7.7;;;;;;;6.59;77.22461;928.9175;;;;
2019/11/09 03:03:55;;;;;;;8.1;7.4;;;;;;;6.62;77.41113;928.8706;;;;
2019/11/09 03:06:25;;;;;;;7.9;7.1;;;;;;;6.62;76.94727;928.9023;;;;
2019/11/09 03:08:57;;;;;;;7.9;7.2;;;;;;;6.69;76.59766;928.8737;;;;
2019/11/09 03:11:21;;;;;;;7.8;7.1;;;;;;;6.73;76.30078;928.9136;;;;
2019/11/09 03:18:55;;;;;;;7.2;6.6;;;;;;;6.67;76.79883;928.9256;;;;
2019/11/09 03:21:25;;;;;;;7;6.3;;;;;;;6.66;76.83105;928.9755;;;;
2019/11/09 03:23:55;;;;;;;7.2;6.5;;;;;;;6.72;76.32129;929.0345;;;;
2019/11/09 03:26:21;;;;;;;7.2;6.6;;;;;;;6.56;76.89258;929.0225;;;;
2019/11/09 03:28:48;;;;;;;7.8;7.1;;;;;;;6.44;77.08594;929.0767;;;;
2019/11/09 03:31:15;;;;;;;7.3;6.7;;;;;;;6.36;77.09375;929.0574;;;;
2019/11/09 03:33:47;;;;;;;7.6;6.8;;;;;;;6.19;77.56152;929.1234;;;;
2019/11/09 03:36:08;;;;;;;7.3;6.6;;;;;;;6.32;77.14355;929.1053;;;;
2019/11/09 03:38:34;;;;;;;7.2;6.6;;;;;;;6.46;76.26367;929.1512;;;;
2019/11/09 03:41:02;;;;;;;7.3;6.7;;;;;;;6.12;77.42285;929.151;;;;
2019/11/09 03:43:27;;;;;;;7;6.4;;;;;;;5.89;78.53223;929.0664;;;;
2019/11/09 03:45:52;;;;;;;7.2;6.5;;;;;;;5.97;77.87109;929.1909;;;;
2019/11/09 03:48:18;;;;;;;7.5;6.8;;;;;;;6.13;77.75195;929.2017;;;;
2019/11/09 03:50:45;;;;;;;7.2;6.6;;;;;;;6.13;77.66211;929.2658;;;;
2019/11/09 03:53:18;;;;;;;6.9;6.3;;;;;;;6.27;76.80664;929.2944;;;;
2019/11/09 03:55:51;;;;;;;7;6.3;;;;;;;6.15;76.89648;929.3086;;;;
2019/11/09 03:58:06;;;;;;;7.1;6.5;;;;;;;5.98;77.56836;929.3309;;;;
2019/11/09 04:02:55;;;;;;;6.5;5.9;;;;;;;6.17;76.7207;929.342;;;;
2019/11/09 04:05:20;;;;;;;6.6;5.8;;;;;;;6.16;76.53809;929.3973;;;;
2019/11/09 04:07:52;;;;;;;6.6;6;;;;;;;6.15;76.47852;929.4414;;;;
2019/11/09 04:10:17;;;;;;;5.8;5.3;;;;;;;6.35;75.45117;929.4668;;;;
2019/11/09 04:12:41;;;;;;;6;5.5;;;;;;;6.28;75.51953;929.5159;;;;
2019/11/09 04:15:08;;;;;;;5.7;5.2;;;;;;;6.38;75.21973;929.5628;;;;
2019/11/09 04:17:36;;;;;;;5.8;5.3;;;;;;;6.46;74.69141;929.6122;;;;
2019/11/09 04:20:09;;;;;;;5.8;5;;;;;;;6.56;74.0752;929.6306;;;;
2019/11/09 04:22:37;;;;;;;5.5;4.9;;;;;;;6.63;74.5293;929.6387;;;;
2019/11/09 04:25:04;;;;;;;5.7;5.2;;;;;;;6.55;74.28906;929.7374;;;;
2019/11/09 04:27:34;;;;;;;5.7;5.2;;;;;;;6.54;74.5;929.7697;;;;
2019/11/09 04:29:59;;;;;;;6.8;5.7;;;;;;;6.23;75.13672;929.7967;;;;
2019/11/09 04:32:33;;;;;;;6.2;5.6;;;;;;;5.93;76.76758;929.8225;;;;
2019/11/09 04:35:06;;;;;;;6.1;5.6;;;;;;;5.89;76.6709;929.9094;;;;
2019/11/09 04:37:37;;;;;;;6.3;5.7;;;;;;;5.94;77.68359;929.9308;;;;
2019/11/09 04:40:09;;;;;;;6.3;5.7;;;;;;;6.07;77.25684;929.9621;;;;
2019/11/09 04:42:35;;;;;;;4.4;4;;;;;;;5.85;77.55469;929.9175;;;;
2019/11/09 04:45:05;;;;;;;4.4;4.1;;;;;;;5.92;77.51172;929.9702;;;;
2019/11/09 04:47:38;;;;;;;4.9;4.5;;;;;;;5.94;77.5166;930.0399;;;;
2019/11/09 04:50:08;;;;;;;4.6;4.2;;;;;;;5.94;77.80957;930.1016;;;;
2019/11/09 04:52:34;;;;;;;4.6;4.2;;;;;;;5.85;78.62793;930.0344;;;;
2019/11/09 04:55:03;;;;;;;4.7;4.3;;;;;;;5.72;79.53027;930.1398;;;;
2019/11/09 04:57:29;;;;;;;4.4;4;;;;;;;5.73;79.2627;930.2189;;;;
2019/11/09 05:00:00;;;;;;;4.5;4.1;;;;;;;5.83;79.73145;930.2372;;;;
2019/11/09 05:02:32;;;;;;;5.6;5.1;;;;;;;5.54;80.96387;930.3436;;;;
2019/11/09 05:04:55;;;;;;;5.7;5.2;;;;;;;5.33;82.1084;930.2874;;;;
2019/11/09 05:07:21;;;;;;;6.1;5;;;;;;;5.46;82.02051;930.3977;;;;
2019/11/09 05:09:50;;;;;;;4.5;4.1;;;;;;;5.56;80.74121;930.4601;;;;
2019/11/09 05:12:23;;;;;;;5.2;4.7;;;;;;;5.56;81.35254;930.3425;;;;
2019/11/09 05:14:48;;;;;;;6;5.4;;;;;;;5.48;81.75293;930.3507;;;;
2019/11/09 05:17:14;;;;;;;5.4;4.9;;;;;;;5.47;82.21582;930.4043;;;;
2019/11/09 05:19:47;;;;;;;5;4.5;;;;;;;5.4;82.34668;930.4344;;;;
2019/11/09 05:22:26;;;;;;;6.5;5.2;;;;;;;5.26;83.38086;930.4447;;;;
2019/11/09 05:24:37;;;;;;;4.9;4.4;;;;;;;5.21;83.39258;930.4724;;;;
2019/11/09 05:27:01;;;;;;;5.3;4.4;;;;;;;5.17;84.02832;930.5258;;;;
2019/11/09 05:29:27;;;;;;;5.2;4.7;;;;;;;5.15;84.35156;930.479;;;;
2019/11/09 05:31:56;;;;;;;4.6;4.2;;;;;;;5.25;83.54785;930.5275;;;;
2019/11/09 05:34:26;;;;;;;4;3.6;;;;;;;5.31;83.03027;930.5506;;;;
2019/11/09 05:36:50;;;;;;;8.2;7.3;;;;;;;5.26;84.0127;930.5403;;;;
2019/11/09 05:39:18;;;;;;;9.4;8.5;;;;;;;5.48;83.62598;930.5694;;;;
2019/11/09 05:41:46;;;;;;;5.6;5.1;;;;;;;5.62;82.94336;930.5253;;;;
2019/11/09 05:44:19;;;;;;;6;4.1;;;;;;;5.82;82.7334;930.5506;;;;
2019/11/09 05:46:46;;;;;;;3.7;2.8;;;;;;;5.77;81.62793;930.5875;;;;
2019/11/09 05:49:16;;;;;;;2.9;2.6;;;;;;;5.86;81.2959;930.4991;;;;
2019/11/09 05:51:52;;;;;;;3.4;3.1;;;;;;;5.91;81.21484;930.557;;;;
2019/11/09 05:54:10;;;;;;;3.8;2.7;;;;;;;6.03;80.94336;930.6181;;;;
2019/11/09 05:56:35;;;;;;;3.4;3.1;;;;;;;6.05;80.71094;930.6256;;;;
2019/11/09 05:59:00;;;;;;;3.1;2.8;;;;;;;6.08;81.20215;930.5809;;;;
2019/11/09 06:01:27;;;;;;;2.4;2.2;;;;;;;5.88;81.02734;930.6605;;;;
2019/11/09 06:03:54;;;;;;;2.6;2.2;;;;;;;5.99;79.79395;930.6425;;;;
2019/11/09 06:06:23;;;;;;;3.9;2.9;;;;;;;5.9;81.8457;930.7322;;;;
2019/11/09 06:08:52;;;;;;;3.7;3.3;;;;;;;5.84;81.69922;930.743;;;;
2019/11/09 06:11:19;;;;;;;4.3;3.6;;;;;;;5.77;81.2998;930.777;;;;
2019/11/09 06:13:46;;;;;;;4.2;3.8;;;;;;;5.77;82.16992;930.7921;;;;
2019/11/09 06:16:15;;;;;;;4.6;3.8;;;;;;;5.84;81.47168;930.8304;;;;
2019/11/09 06:18:42;;;;;;;6.2;4.5;;;;;;;5.95;81.49219;930.9012;;;;
2019/11/09 06:21:13;;;;;;;4.6;4.2;;;;;;;6.11;80.59668;930.9252;;;;
2019/11/09 06:23:37;;;;;;;4.6;4.2;;;;;;;6.15;80.70508;930.9888;;;;
2019/11/09 06:26:09;;;;;;;5.5;4.1;;;;;;;6.21;80.49121;931.0295;;;;
2019/11/09 06:28:40;;;;;;;4.8;4.3;;;;;;;6.32;80.48926;931.1504;;;;
2019/11/09 06:31:12;;;;;;;5;4.5;;;;;;;6.38;80.4668;931.1275;;;;
2019/11/09 06:33:42;;;;;;;5.5;5;;;;;;;6.33;80.7959;931.2059;;;;
2019/11/09 06:36:06;;;;;;;6;5.4;;;;;;;6.27;81.23828;931.2612;;;;
2019/11/09 06:38:33;;;;;;;4.4;4;;;;;;;6.24;80.84668;931.2687;;;;
2019/11/09 06:41:07;;;;;;;4.6;3.7;;;;;;;6.19;81.78613;931.2502;;;;
2019/11/09 06:43:23;;;;;;;4.4;3.2;;;;;;;6.09;82.63867;931.2314;;;;
2019/11/09 06:45:48;;;;;;;3.6;3.3;;;;;;;6.13;82.28418;931.2936;;;;
2019/11/09 06:48:14;;;;;;;5;3.3;;;;;;;6.14;82.41211;931.2883;;;;
2019/11/09 06:50:38;;;;;;;4.9;3.9;;;;;;;6.18;82.46387;931.3522;;;;
2019/11/09 06:53:08;;;;;;;8.1;6.6;;;;;;;6.15;82.32324;931.3912;;;;
2019/11/09 06:55:39;;;;;;;7.3;5.8;;;;;;;6.06;82.36035;931.3488;;;;
2019/11/09 06:58:05;;;;;;;5.6;5.1;;;;;;;6.14;81.90332;931.3981;;;;
2019/11/09 07:00:33;;;;;;;5.6;5;;;;;;;6.2;82.07227;931.4133;;;;
2019/11/09 07:03:00;;;;;;;5.2;4.7;;;;;;;6.2;82.0498;931.4252;;;;
2019/11/09 07:05:34;;;;;;;8;6.8;;;;;;;6.24;82.29395;931.5042;;;;
2019/11/09 07:08:00;;;;;;;5.3;4.4;;;;;;;6.22;82.2334;931.5276;;;;
2019/11/09 07:10:24;;;;;;;5.2;3.8;;;;;;;6.22;81.87207;931.5592;;;;
2019/11/09 07:12:49;;;;;;;5.8;5;;;;;;;6.26;82.27441;931.5939;;;;
2019/11/09 07:15:26;;;;;;;5.3;4.8;;;;;;;6.28;82.33594;931.6424;;;;
2019/11/09 07:17:55;;;;;;;17.7;10.4;;;;;;;6.32;81.5293;931.6595;;;;
2019/11/09 07:20:47;;;;;;;10.2;7.6;;;;;;;6.33;81.90527;931.7143;;;;
2019/11/09 07:23:14;;;;;;;7;5.1;;;;;;;6.33;82.11914;931.7095;;;;
2019/11/09 07:25:43;;;;;;;5.8;4.6;;;;;;;6.25;82.43262;931.7353;;;;
2019/11/09 07:28:09;;;;;;;5.8;3.5;;;;;;;6.32;82.8877;931.7006;;;;
2019/11/09 07:30:35;;;;;;;5.6;4.7;;;;;;;6.16;82.3252;931.8095;;;;
2019/11/09 07:33:03;;;;;;;6.8;5.2;;;;;;;6.14;82.85254;931.8147;;;;
2019/11/09 07:35:36;;;;;;;5.2;4.7;;;;;;;6.34;82.52734;931.7776;;;;
2019/11/09 07:38:01;;;;;;;6.3;4.7;;;;;;;6.44;82.08496;931.7644;;;;
2019/11/09 07:40:33;;;;;;;6;4.6;;;;;;;6.37;82.39844;931.7765;;;;
2019/11/09 07:42:57;;;;;;;5.4;4.9;;;;;;;6.48;81.91113;931.821;;;;
2019/11/09 07:45:28;;;;;;;5.4;4.8;;;;;;;6.48;81.99023;931.8589;;;;
2019/11/09 07:48:01;;;;;;;7.1;5.5;;;;;;;6.53;81.70605;931.8834;;;;
2019/11/09 07:50:33;;;;;;;7.1;5.9;;;;;;;6.53;82;931.8621;;;;
2019/11/09 07:53:02;;;;;;;7.1;5.5;;;;;;;6.66;81.44727;931.865;;;;
2019/11/09 07:55:27;;;;;;;5.5;5;;;;;;;6.72;81.23145;931.8981;;;;
2019/11/09 07:57:56;;;;;;;5.5;4.5;;;;;;;6.73;80.82715;931.9473;;;;
2019/11/09 08:00:19;;;;;;;4.8;4.3;;;;;;;6.69;80.41309;931.9745;;;;
2019/11/09 08:02:43;;;;;;;6.2;4.9;;;;;;;6.63;80.07324;931.9856;;;;
2019/11/09 08:05:30;;;;;;;4.9;4.3;;;;;;;6.73;78.63184;931.9647;;;;
2019/11/09 08:07:57;;;;;;;4.8;4.4;;;;;;;6.74;79.42578;931.9064;;;;
2019/11/09 08:10:21;;;;;;;4.2;3.5;;;;;;;6.83;77.99316;931.9166;;;;
2019/11/09 08:12:46;;;;;;;3.6;3.3;;;;;;;6.82;77.45996;931.8975;;;;
2019/11/09 08:15:12;;;;;;;5;3.9;;;;;;;6.81;78.96387;931.8522;;;;
2019/11/09 08:18:33;;;;;;;4;3.6;;;;;;;6.92;77.09277;931.8434;;;;
2019/11/09 08:21:03;;;;;;;4;3.6;;;;;;;7.01;76.07813;931.8819;;;;
2019/11/09 08:23:32;;;;;;;3.2;2.9;;;;;;;7.16;75.26758;931.8742;;;;
2019/11/09 08:26:02;;;;;;;3.5;3.2;;;;;;;7.08;75.7041;931.9056;;;;
2019/11/09 08:28:34;;;;;;;3.3;3;;;;;;;7.12;74.91992;931.8729;;;;
2019/11/09 08:31:04;;;;;;;4.5;3.1;;;;;;;7.21;76.44238;931.9764;;;;
2019/11/09 08:33:32;;;;;;;2.8;2.6;;;;;;;7.3;74.25977;931.9316;;;;
2019/11/09 08:35:59;;;;;;;3.8;3.4;;;;;;;7.2;75.10352;931.9079;;;;
2019/11/09 08:38:26;;;;;;;4.1;3;;;;;;;7.19;74.09375;931.9609;;;;
2019/11/09 08:40:59;;;;;;;3.7;3.4;;;;;;;7.23;74.76855;931.9703;;;;
2019/11/09 08:43:23;;;;;;;4.1;3.7;;;;;;;7.31;76.00684;931.9585;;;;
2019/11/09 08:45:55;;;;;;;5.9;3.6;;;;;;;7.24;75.97168;932.0005;;;;
2019/11/09 08:48:26;;;;;;;4.8;3.6;;;;;;;7.36;75.49316;932.0636;;;;
2019/11/09 08:50:55;;;;;;;4.2;3.8;;;;;;;7.5;74.99707;932.1439;;;;
2019/11/09 08:53:22;;;;;;;4.4;3.9;;;;;;;7.55;76.34277;932.2022;;;;
2019/11/09 08:55:54;;;;;;;5.3;3.9;;;;;;;7.57;75.95215;932.2508;;;;
2019/11/09 08:58:27;;;;;;;4.4;3.4;;;;;;;7.61;75.66406;932.2198;;;;
2019/11/09 09:00:53;;;;;;;6.2;4.4;;;;;;;7.7;75.83691;932.2151;;;;
2019/11/09 09:03:22;;;;;;;5.5;4.8;;;;;;;7.72;74.98926;932.2542;;;;
2019/11/09 09:05:55;;;;;;;6.8;5.5;;;;;;;7.65;75.77246;932.2401;;;;
2019/11/09 09:08:21;;;;;;;6;5;;;;;;;7.64;75.21484;932.293;;;;
2019/11/09 09:13:15;;;;;;;7.4;4.9;;;;;;;7.39;77.4248;932.361;;;;
2019/11/09 09:15:40;;;;;;;6.2;5.1;;;;;;;7.36;77.5791;932.34;;;;
2019/11/09 09:18:08;;;;;;;5;4.5;;;;;;;7.24;76.3916;932.379;;;;
2019/11/09 09:20:33;;;;;;;4.8;4;;;;;;;7.17;75.23535;932.3945;;;;
2019/11/09 09:23:00;;;;;;;4.2;3.8;;;;;;;7.19;75.19238;932.3978;;;;
2019/11/09 09:25:27;;;;;;;4.7;3.8;;;;;;;7.17;75.55176;932.4023;;;;
2019/11/09 09:28:30;;;;;;;4.5;3.6;;;;;;;7.19;75.66895;932.3995;;;;
2019/11/09 09:31:06;;;;;;;4.4;3.6;;;;;;;7.2;75.70313;932.4272;;;;
2019/11/09 09:33:29;;;;;;;3.3;3;;;;;;;7.19;75.09082;932.4627;;;;
2019/11/09 09:35:56;;;;;;;4.3;3.5;;;;;;;7;76.48438;932.4387;;;;
2019/11/09 09:38:24;;;;;;;3.2;2.7;;;;;;;6.84;75.53906;932.5411;;;;
2019/11/09 09:40:50;;;;;;;3.5;3;;;;;;;6.56;77.84277;932.5522;;;;
2019/11/09 09:43:19;;;;;;;3.2;2.9;;;;;;;6.61;78.37305;932.6205;;;;
2019/11/09 09:45:48;;;;;;;3.4;2.8;;;;;;;6.53;78.01855;932.5992;;;;
2019/11/09 09:48:16;;;;;;;3;2.2;;;;;;;6.44;78.27344;932.597;;;;
2019/11/09 09:50:43;;;;;;;4.2;3.3;;;;;;;6.35;78.16602;932.5834;;;;
2019/11/09 09:53:09;;;;;;;3.2;2.8;;;;;;;6.24;78.67676;932.588;;;;
2019/11/09 09:55:34;;;;;;;2.6;2.4;;;;;;;6.26;79.4707;932.6128;;;;
2019/11/09 09:58:02;;;;;;;2.1;1.8;;;;;;;6.32;78.42188;932.6209;;;;
2019/11/09 10:00:27;;;;;;;2.1;1.2;;;;;;;6.24;78.07715;932.6323;;;;
2019/11/09 10:02:52;;;;;;;1.6;1.1;;;;;;;6.24;79.66016;932.5698;;;;
2019/11/09 10:05:23;;;;;;;0.7;0.6;;;;;;;6.1;78.21094;932.6297;;;;
2019/11/09 10:07:52;;;;;;;1.6;1.2;;;;;;;5.8;78.74316;932.6356;;;;
2019/11/09 10:10:18;;;;;;;3.7;1.7;;;;;;;5.58;79.40137;932.6469;;;;
2019/11/09 10:12:44;;;;;;;2.4;1.9;;;;;;;5.49;79.91699;932.6832;;;;
2019/11/09 10:15:12;;;;;;;2.1;1.9;;;;;;;5.52;81.33105;932.6876;;;;
2019/11/09 10:17:39;;;;;;;2.3;1.4;;;;;;;5.6;81.03223;932.6465;;;;
2019/11/09 10:20:08;;;;;;;1.8;1.4;;;;;;;5.79;81.11328;932.7095;;;;
2019/11/09 10:23:25;;;;;;;2.3;1.6;;;;;;;5.65;79.90039;932.6532;;;;
2019/11/09 10:25:11;;;;;;;3;2.7;;;;;;;5.64;82.28027;932.6656;;;;
2019/11/09 10:27:38;;;;;;;3.1;2.3;;;;;;;5.91;81.20508;932.7668;;;;
2019/11/09 10:30:03;;;;;;;3.4;2;;;;;;;6.04;81.28516;932.774;;;;
2019/11/09 10:32:31;;;;;;;2;1;;;;;;;6.06;80.8125;932.8107;;;;
2019/11/09 10:35:04;;;;;;;2.1;1.2;;;;;;;6.06;79.27734;932.8441;;;;
2019/11/09 10:37:38;;;;;;;2.9;1.7;;;;;;;6.05;81.08203;932.7766;;;;
2019/11/09 10:40:12;;;;;;;4.6;3.2;;;;;;;6.08;81.32422;932.7905;;;;
2019/11/09 10:42:39;;;;;;;4.3;2.7;;;;;;;6.19;80.89453;932.7481;;;;
2019/11/09 10:45:03;;;;;;;4;2.5;;;;;;;5.92;79.03613;932.7827;;;;
2019/11/09 10:47:28;;;;;;;4.5;3.3;;;;;;;5.95;80.04688;932.7841;;;;
2019/11/09 10:50:02;;;;;;;1.3;1.1;;;;;;;5.88;79.3457;932.83;;;;
2019/11/09 10:52:28;;;;;;;1.7;1;;;;;;;5.72;77.97168;932.7509;;;;
2019/11/09 10:54:57;;;;;;;21.8;20.1;;;;;;;5.4;79.66309;932.6646;;;;
2019/11/09 10:57:26;;;;;;;3.3;3;;;;;;;5.15;81.07227;932.7336;;;;
2019/11/09 10:59:55;;;;;;;2;1.8;;;;;;;5.16;81.59082;932.7258;;;;
2019/11/09 11:02:26;;;;;;;1.8;1.4;;;;;;;5.25;82.25098;932.6789;;;;
2019/11/09 11:04:57;;;;;;;2.3;1.3;;;;;;;5.37;81.19043;932.7153;;;;
2019/11/09 11:07:22;;;;;;;1.8;1.3;;;;;;;5.64;79.93262;932.6333;;;;
2019/11/09 11:09:50;;;;;;;3.3;1.9;;;;;;;5.94;80.49707;932.6937;;;;
2019/11/09 11:12:13;;;;;;;3;2.2;;;;;;;6.13;81.21094;932.6508;;;;
2019/11/09 11:14:40;;;;;;;3.3;2.3;;;;;;;6.37;80.12598;932.6557;;;;
2019/11/09 11:17:04;;;;;;;3.1;2.2;;;;;;;6.53;77.23828;932.6489;;;;
2019/11/09 11:19:35;;;;;;;1.5;1.3;;;;;;;6.7;75.73926;932.6534;;;;
2019/11/09 11:21:59;;;;;;;1.9;1.3;;;;;;;6.78;76.77441;932.6324;;;;
2019/11/09 11:24:29;;;;;;;2.5;1.5;;;;;;;6.83;74.92578;932.6066;;;;
2019/11/09 11:27:00;;;;;;;2;1.4;;;;;;;7.03;75.96875;932.5961;;;;
2019/11/09 11:29:31;;;;;;;3.4;2.2;;;;;;;7.28;74.3584;932.4856;;;;
2019/11/09 11:34:31;;;;;;;4.2;2.7;;;;;;;7.62;72.10352;932.3942;;;;
2019/11/09 11:36:57;;;;;;;3;2.4;;;;;;;8.08;72.59082;932.374;;;;
2019/11/09 11:39:25;;;;;;;2.6;1.9;;;;;;;8.46;69.1875;932.313;;;;
2019/11/09 11:41:52;;;;;;;1.8;1.6;;;;;;;8.31;70.26758;932.3755;;;;
2019/11/09 11:44:19;;;;;;;3.5;2.7;;;;;;;8.54;71.41797;932.3929;;;;
2019/11/09 11:46:47;;;;;;;4.1;2.8;;;;;;;8.13;71.94922;932.3466;;;;
2019/11/09 11:49:14;;;;;;;3.5;2.7;;;;;;;8.14;73.82617;932.3047;;;;
2019/11/09 11:51:38;;;;;;;3.2;2.3;;;;;;;8.14;71.89551;932.3024;;;;
2019/11/09 11:54:10;;;;;;;3.5;3.2;;;;;;;7.82;74.08789;932.3498;;;;
2019/11/09 11:56:35;;;;;;;11.4;9;;;;;;;7.58;74.35352;932.308;;;;
2019/11/09 11:59:01;;;;;;;6;4.5;;;;;;;7.56;77.07031;932.2927;;;;
2019/11/09 12:01:28;;;;;;;7;4.5;;;;;;;7.58;78.0957;932.2611;;;;
2019/11/09 12:03:54;;;;;;;6.5;3.9;;;;;;;7.33;76.08887;932.2653;;;;
2019/11/09 12:06:19;;;;;;;6.2;3.5;;;;;;;7.38;78.22852;932.2254;;;;
2019/11/09 12:08:49;;;;;;;3.7;2.9;;;;;;;7.34;76.02441;932.2488;;;;
2019/11/09 12:11:15;;;;;;;3.9;2.7;;;;;;;7.17;75.83496;932.1443;;;;
2019/11/09 12:13:43;;;;;;;5.1;2.5;;;;;;;7.28;77.04297;932.1316;;;;
2019/11/09 12:16:10;;;;;;;5.2;2.9;;;;;;;7.42;76.75098;932.1184;;;;
2019/11/09 12:18:36;;;;;;;4.8;2.5;;;;;;;7.48;75.58203;932.0842;;;;
2019/11/09 12:21:00;;;;;;;4.1;2.6;;;;;;;7.61;76.27539;932.008;;;;
2019/11/09 12:23:28;;;;;;;4.7;2.7;;;;;;;8.21;76.2334;931.981;;;;
2019/11/09 12:25:55;;;;;;;3.6;1.7;;;;;;;8.41;73.06445;932.0386;;;;
2019/11/09 12:28:24;;;;;;;1.7;1.1;;;;;;;8.41;70.16895;931.9458;;;;
2019/11/09 12:30:54;;;;;;;5.1;2.7;;;;;;;8.53;72.29004;932.008;;;;
2019/11/09 12:33:22;;;;;;;2.3;1.3;;;;;;;8.59;71.37988;931.9291;;;;
2019/11/09 12:35:47;;;;;;;2.6;1.5;;;;;;;8.45;72.76563;931.9774;;;;
2019/11/09 12:38:18;;;;;;;3;1.7;;;;;;;8.45;73.40332;931.8972;;;;
2019/11/09 12:40:41;;;;;;;2.4;1.5;;;;;;;8.32;71.05176;931.8639;;;;
2019/11/09 12:43:06;;;;;;;1.7;1.4;;;;;;;8.17;71.82129;931.8173;;;;
2019/11/09 12:45:35;;;;;;;2.3;1.7;;;;;;;8.33;73.71094;931.7887;;;;
2019/11/09 12:48:04;;;;;;;1.6;1.4;;;;;;;8.33;70.34668;931.7847;;;;
2019/11/09 12:50:36;;;;;;;2.5;1.6;;;;;;;8.41;73.16797;931.8033;;;;
2019/11/09 12:53:05;;;;;;;2.4;1.4;;;;;;;8.57;70.79785;931.7496;;;;
2019/11/09 12:55:31;;;;;;;3.3;1.7;;;;;;;8.79;70.92383;931.7186;;;;
2019/11/09 12:57:55;;;;;;;3.3;2.1;;;;;;;9;71.36914;931.7144;;;;
2019/11/09 13:00:26;;;;;;;3.5;1.9;;;;;;;8.81;68.75684;931.6683;;;;
2019/11/09 13:02:50;;;;;;;4.1;2.8;;;;;;;8.8;69.01563;931.5822;;;;
2019/11/09 13:05:19;;;;;;;4.3;2.7;;;;;;;8.92;70.04785;931.6704;;;;
2019/11/09 13:07:47;;;;;;;3.9;2.5;;;;;;;8.67;69.51758;931.6831;;;;
2019/11/09 13:10:16;;;;;;;3.8;2.3;;;;;;;8.66;70.14063;931.7076;;;;
2019/11/09 13:12:46;;;;;;;2.3;1.8;;;;;;;8.57;72.90039;931.7307;;;;
2019/11/09 13:15:14;;;;;;;2.4;1.7;;;;;;;8.64;74.65137;931.7885;;;;
2019/11/09 13:17:44;;;;;;;3.3;2.2;;;;;;;8.55;71.40723;931.6671;;;;
2019/11/09 13:20:18;;;;;;;5.3;2.2;;;;;;;8.5;71.1377;931.642;;;;
2019/11/09 13:22:51;;;;;;;4.1;2.8;;;;;;;8.49;72.6709;931.6055;;;;
2019/11/09 13:25:16;;;;;;;3.9;2.1;;;;;;;8.37;74.2627;931.6044;;;;
2019/11/09 13:27:59;;;;;;;3;1.8;;;;;;;8.31;76.19531;931.6125;;;;
2019/11/09 13:30:19;;;;;;;3.3;1.6;;;;;;;8.2;76.39258;931.6503;;;;
2019/11/09 13:32:50;;;;;;;3.5;1.9;;;;;;;8.15;75.54199;931.6847;;;;
2019/11/09 13:35:17;;;;;;;2.4;1.7;;;;;;;8.06;76.16211;931.6872;;;;
2019/11/09 13:37:45;;;;;;;3.4;2.1;;;;;;;7.87;76.78516;931.7115;;;;
2019/11/09 13:40:16;;;;;;;3.7;2.1;;;;;;;7.77;78.12988;931.7214;;;;
2019/11/09 13:42:41;;;;;;;3.4;1.8;;;;;;;7.7;77.54004;931.7097;;;;
2019/11/09 13:45:28;;;;;;;4.6;2.2;;;;;;;7.5;75.43945;931.7042;;;;
2019/11/09 13:47:59;;;;;;;5.8;3.9;;;;;;;7.39;76.32715;931.7059;;;;
2019/11/09 13:50:29;;;;;;;6.1;3.4;;;;;;;7.4;75.94336;931.7109;;;;
2019/11/09 13:52:56;;;;;;;4.5;3;;;;;;;7.27;76.47656;931.6604;;;;
2019/11/09 13:55:27;;;;;;;5.7;3.6;;;;;;;7.34;77.94922;931.6848;;;;
2019/11/09 13:57:59;;;;;;;4.7;3.3;;;;;;;7.35;77.58887;931.6082;;;;
2019/11/09 14:00:28;;;;;;;5.7;3.6;;;;;;;7.46;78.84375;931.6738;;;;
2019/11/09 14:02:55;;;;;;;5.1;3.7;;;;;;;7.15;76.90723;931.6651;;;;
2019/11/09 14:05:29;;;;;;;5;2.9;;;;;;;6.69;78.4082;931.6003;;;;
2019/11/09 14:08:00;;;;;;;5;2.6;;;;;;;6.85;80.29492;931.624;;;;
2019/11/09 14:10:25;;;;;;;4.1;3.2;;;;;;;7.02;79.9873;931.6161;;;;
2019/11/09 14:12:59;;;;;;;4.9;3.8;;;;;;;7.22;78.73242;931.5664;;;;
2019/11/09 14:15:25;;;;;;;9.1;5.5;;;;;;;7.24;78.00098;931.5532;;;;
2019/11/09 14:17:58;;;;;;;5.8;4.1;;;;;;;7.27;77.68848;931.6232;;;;
2019/11/09 14:20:22;;;;;;;6.5;4.1;;;;;;;7.36;78.27051;931.5306;;;;
2019/11/09 14:22:47;;;;;;;6.1;4.8;;;;;;;7.5;76.32324;931.5545;;;;
2019/11/09 14:25:15;;;;;;;4.7;3.4;;;;;;;7.51;74.6582;931.4818;;;;
2019/11/09 14:27:39;;;;;;;6.7;3.7;;;;;;;7.53;76.31738;931.5366;;;;
2019/11/09 14:30:08;;;;;;;3.6;2.9;;;;;;;7.57;75.91699;931.5544;;;;
2019/11/09 14:35:33;;;;;;;9.1;5.6;;;;;;;7.49;78.06836;931.5853;;;;
2019/11/09 14:38:04;;;;;;;13.3;8.7;;;;;;;7.61;77.80566;931.558;;;;
2019/11/09 14:40:35;;;;;;;10.4;6.9;;;;;;;7.76;78.80957;931.4789;;;;
2019/11/09 14:43:01;;;;;;;9.6;6.7;;;;;;;7.86;79.99609;931.5259;;;;
2019/11/09 14:45:30;;;;;;;8.8;6.6;;;;;;;7.89;79.50391;931.5572;;;;
2019/11/09 14:47:54;;;;;;;9.7;6.4;;;;;;;7.83;79.35547;931.555;;;;
2019/11/09 14:50:19;;;;;;;9.5;6.8;;;;;;;7.64;80.46582;931.5634;;;;
2019/11/09 14:52:50;;;;;;;10.2;7.4;;;;;;;7.66;81.5127;931.5533;;;;
2019/11/09 14:55:14;;;;;;;46.1;32.5;;;;;;;7.74;81.19922;931.615;;;;
2019/11/09 14:57:49;;;;;;;54.8;38.7;;;;;;;7.79;79.47266;931.571;;;;
2019/11/09 15:00:14;;;;;;;62.4;43.9;;;;;;;7.79;79.49512;931.5575;;;;
2019/11/09 15:02:38;;;;;;;79.4;56.4;;;;;;;7.83;78.05078;931.5566;;;;
2019/11/09 15:05:04;;;;;;;33.8;25.7;;;;;;;7.96;78.07422;931.5909;;;;